Aktualne dane pomiarowe

Uwaga, wersja testowa! Automatyczne pobieranie danych za pomocą narzędzi lub skryptów to umożliwiających jest zabronione.

Dane meteo z obszaru Polski uzyskane na podstawie depesz SYNOP pobieranych co godzinę z NWS. Najedź myszką na symbol przedstawiony w tabeli, aby uzyskać informacje co do jego znaczenia. Prosimy pamiętać, że to testowa wersja strony, która jeszcze nie jest ukończona. Stworzono również jest krótki FAQ dotyczący korzystania z tej podstrony Anomalie temperatury w chwili obecnej odniesione są do okresu referencyjnego 1951-2016. Okres ten będzie później zmieniony na 1981-2010. Kliknij ikonę aby pobrać plik CSV. Kliknij ikonę aby wygenerować mapę synoptyczną dla danego terminu.

Wybierz Datę:    

        

Nowy Sącz (12660)

Dane terminowe dla wybranej stacji. Kliknij datę, aby otrzymać dane z tego terminu dla wszystkich stacji.

TemperaturaZachmurzenieWiatrCiśnienieOpadyPogoda
 Data t td wb tx tn tg rh  Nt Nl Cl Cm Ch ws wd g1 g2 wx mslp ppp ch 24h 12h t ww ww w1 w2  
2019-07-04 23:00:00 11.2 7.9 9.1--- 8017.0--0---01019.4 983.9 -0.6---------
2019-07-04 22:00:00 12.3 7.0 9.1--- 7020.0--1wx--11019.7 984.3 0.1---------
2019-07-04 21:00:00 14.0 8.2 10.5--- 6823.0--1wx--11019.6 984.4 0.3---------
2019-07-04 20:00:00 15.6 6.8 10.6--- 5614.0--1wx--11019.5 984.5 0.3---------
2019-07-04 19:00:00 18.3 5.2 11.2--- 4240.0--1wx--11018.8 984.2 -0.3---------
2019-07-04 18:00:00 20.7 3.8 11.8 23.7 13.4- 3350.0--1wx-911018.4 984.1 -0.5- 0.012------
2019-07-04 17:00:00 22.2 4.7 12.8--- 3245.0--2wx-721018.4 984.2 -0.8---------
2019-07-04 16:00:00 22.8 4.3 12.9--- 3030.0--2wx---1018.6 984.5 -0.9---------
2019-07-04 15:00:00 23.1 5.0 13.3--- 3130.0--2wx-921018.7 984.6 -1.3---------
2019-07-04 14:00:00 23.4 4.3 13.2--- 2930.0--2wx-721019.0 985.0 -1.5---------
2019-07-04 13:00:00 23.4 3.3 12.8--- 2730.0--2wx8921019.5 985.4 -1.3---------
2019-07-04 12:00:00 22.5 4.0 12.7--- 3035.0--2wx-721020.1 985.9 -0.9- 0.06------
2019-07-04 11:00:00 21.4 3.1 11.9--- 3030.0--4wx-741020.8 986.5 -0.4---------
2019-07-04 10:00:00 20.3 3.1 11.4--- 3230.0--2wx7721021.2 986.7 -0.5---------
2019-07-04 09:00:00 20.3 4.7 12.0--- 3630.0--1wx--11021.3 986.8 -0.6---------
2019-07-04 08:00:00 19.4 4.7 11.5--- 3835.0--2wx--21021.5 986.9 -0.3---------
2019-07-04 07:00:00 16.7 5.3 10.5--- 4730.0--1wx---1022.1 987.2 0.0---------
2019-07-04 06:00:00 13.4 5.5 9.0 19.9 7.7 6 5926.0--1wx--11022.7 987.4 0.2- 0.012----- 15.2
2019-07-04 05:00:00 10.8 6.9 8.4--- 7726.0--1wx--11022.9 987.2 0.5---------
2019-07-04 04:00:00 8.5 6.8 7.4--- 8924.0--1wx--11023.2 987.2 0.5---------
2019-07-04 03:00:00 7.9 5.7 6.5--- 8630.0--1wx--11023.2 987.2 0.5---------
2019-07-04 02:00:00 8.6 6.0 6.9--- 8429.0--0---01022.6 986.7 0.0---------
2019-07-04 01:00:00 9.2 7.1 7.8--- 8718.0--0---01022.6 986.7 0.2---------
2019-07-04 00:00:00 9.9 6.8 7.9--- 8125.0--0---01022.5 986.7 0.6- 0.06------
2019-07-03 23:00:00 10.9 6.2 8.1--- 7318.0--0---01022.3 986.7 1.1---------
2019-07-03 22:00:00 12.5 8.2 9.8--- 7528.0--1wx--11021.9 986.5 1.4---------
2019-07-03 21:00:00 14.0 7.7 10.2--- 6621.0--1wx--11021.3 986.1 1.7---------
2019-07-03 20:00:00 15.6 4.6 9.7--- 4826.0--1wx--11020.6 985.6 1.3---------
2019-07-03 19:00:00 18.3 4.1 10.8--- 3930.0--1wx--11019.8 985.1 1.0---------
2019-07-03 18:00:00 19.9 4.4 11.7 23.3 17.0- 3635.0--2wx-1121018.8 984.4 0.3- 0.012------
2019-07-03 17:00:00 21.5 5.0 12.6--- 3440.0--2wx-921018.5 984.3 0.1---------
2019-07-03 16:00:00 22.2 4.7 12.8--- 3230.0--3wx8931018.3 984.1 -0.4---------
2019-07-03 15:00:00 22.5 4.5 12.9--- 3130.0--3wx91131018.2 984.1 -0.5---------
2019-07-03 14:00:00 22.9 5.3 13.3--- 3235.0--4wx101141018.3 984.2 -0.6---------
2019-07-03 13:00:00 23.0 5.0 13.3--- 3135.0--3wx-931018.6 984.5 -0.3---------
2019-07-03 12:00:00 22.6 6.4 13.6--- 3529.0--4wx9--1018.7 984.6 -0.5---------
2019-07-03 11:00:00 22.1 5.5 13.1--- 3430.0--3wx81231019.0 984.8 -0.1---------
2019-07-03 10:00:00 21.9 7.7 13.9--- 4019.0--3wx-831019.0 984.8 0.1---------
2019-07-03 09:00:00 19.4 6.1 12.1--- 4235.0--2wx---1019.6 985.1 0.4---------
2019-07-03 08:00:00 19.0 6.8 12.2--- 4529.0--2wx7721019.5 984.9 0.1---------
2019-07-03 07:00:00 18.2 7.3 12.0--- 4928.0--2wx--21019.4 984.7 0.2---------
2019-07-03 06:00:00 17.0 8.2 11.9 23.3 11.9 10 5627.0--2wx--21019.5 984.7 0.5- 0.012----- 9.4
2019-07-03 05:00:00 14.7 10.3 11.9--- 7517.0--1wx--11019.9 984.8 1.0---------
2019-07-03 04:00:00 12.6 10.0 10.9--- 8424.0--1wx--11019.8 984.5 0.9---------
2019-07-03 03:00:00 12.0 10.1 10.7--- 8812.0--0---01019.6 984.2 0.7---------
2019-07-03 02:00:00 12.8 8.9 10.3--- 7735.0--1wx--11019.1 983.8 0.5---------
2019-07-03 01:00:00 13.9 9.5 11.1--- 7535.0--1wx--11018.7 983.6 0.4---------
2019-07-03 00:00:00 15.1 10.1 11.9--- 7230.0--1wx--11018.5 983.5 0.7- 0.06------
5.4 ms

 

Print Friendly, PDF & Email